Cinque Terre — IUTV — position and weather

sailwx.info

Track history (hours):
 
Tides and Currents Weather Stations Pressure Air Temp Water Temp Dewpoint Dewpoint Depression Visibility Wind Speed Wind Dir Waves Ship Positions

Cinque Terre

Last reported at 2015-Oct-30 07:07 UTC. Time now 2016-Feb-06 23:06 UTC.
Position N 40°43' E 014°27'.
Warning: this ship's position is months out of date.

Length 15 m; draft 1 m.

Type: Passenger vessel. MMSI: 247208400.

Date/timePositionNaut miles runAvg speedWind from/ knotsBaromVisibWave heightAir tempDewpointWater temp
2015-Oct-30 07:07N 40°43' E 014°27'712.7
2015-Oct-30 06:33N 40°38' E 014°21'6 0.1
2015-Oct-28 09:15N 40°33' E 014°15'1 0.8
2015-Oct-28 08:32N 40°34' E 014°15'5 4.5
2015-Oct-28 07:30N 40°37' E 014°20'0 0.0
2015-Oct-27 16:08N 40°37' E 014°20'0 0.1
2015-Oct-27 15:31N 40°37' E 014°20'4 3.1
2015-Oct-27 14:07N 40°34' E 014°16'1 0.2
2015-Oct-27 09:04N 40°33' E 014°15'0 0.3
2015-Oct-27 08:28N 40°33' E 014°15'6 7.0
2015-Oct-27 07:33N 40°38' E 014°21'1 0.0
2015-Oct-25 15:33N 40°37' E 014°20'8 6.9
2015-Oct-25 14:27N 40°32' E 014°12'7 7.8
2015-Oct-25 13:33N 40°36' E 014°19'1 0.1
2015-Oct-25 09:08N 40°37' E 014°20'5 8.3
2015-Oct-25 08:33N 40°34' E 014°15'5 4.8
2015-Oct-25 07:33N 40°37' E 014°20'0 0.0
2015-Oct-24 15:11N 40°37' E 014°20'4 5.7
2015-Oct-24 14:31N 40°34' E 014°16'3 2.7
2015-Oct-24 13:33N 40°34' E 014°13'6 1.2
2015-Oct-24 08:34N 40°37' E 014°20'5 5.2
2015-Oct-24 07:33N 40°33' E 014°15'  
Track history (hours):
 
Tides and Currents Weather Stations Pressure Air Temp Water Temp Dewpoint Dewpoint Depression Visibility Wind Speed Wind Dir Waves Ship Positions

Cinque Terre

Last reported at 2015-Oct-30 07:07 UTC. Time now 2016-Feb-06 23:06 UTC.
Position N 40°43' E 014°27'.
Warning: this ship's position is months out of date.

Length 15 m; draft 1 m.

Type: Passenger vessel. MMSI: 247208400.

Date/timePositionNaut miles runAvg speedWind from/ knotsBaromVisibWave heightAir tempDewpointWater temp
2015-Oct-30 07:07N 40°43' E 014°27'712.7
2015-Oct-30 06:33N 40°38' E 014°21'6 0.1
2015-Oct-28 09:15N 40°33' E 014°15'1 0.8
2015-Oct-28 08:32N 40°34' E 014°15'5 4.5
2015-Oct-28 07:30N 40°37' E 014°20'0 0.0
2015-Oct-27 16:08N 40°37' E 014°20'0 0.1
2015-Oct-27 15:31N 40°37' E 014°20'4 3.1
2015-Oct-27 14:07N 40°34' E 014°16'1 0.2
2015-Oct-27 09:04N 40°33' E 014°15'0 0.3
2015-Oct-27 08:28N 40°33' E 014°15'6 7.0
2015-Oct-27 07:33N 40°38' E 014°21'1 0.0
2015-Oct-25 15:33N 40°37' E 014°20'8 6.9
2015-Oct-25 14:27N 40°32' E 014°12'7 7.8
2015-Oct-25 13:33N 40°36' E 014°19'1 0.1
2015-Oct-25 09:08N 40°37' E 014°20'5 8.3
2015-Oct-25 08:33N 40°34' E 014°15'5 4.8
2015-Oct-25 07:33N 40°37' E 014°20'0 0.0
2015-Oct-24 15:11N 40°37' E 014°20'4 5.7
2015-Oct-24 14:31N 40°34' E 014°16'3 2.7
2015-Oct-24 13:33N 40°34' E 014°13'6 1.2
2015-Oct-24 08:34N 40°37' E 014°20'5 5.2
2015-Oct-24 07:33N 40°33' E 014°15'  

Dump ship's entire track history